Observation data for Gail on 06/25/2019      Previous  Date  Next       Current Mesonet Observations  Soil Data  Daily Summary Page  Observations in Plain Language
KGGS 250500Z 13008G13KT 22/15 A2996 RMK A01 T02150145  RH  067%=      5-min Rain = 0
KGGS 250505Z 13008KT 22/14 A2996 RMK A01 T02160143  RH  066%=      5-min Rain = 0
KGGS 250510Z 13008KT 22/14 A2996 RMK A01 T02160141  RH  065%=      5-min Rain = 0
KGGS 250515Z 14009KT 22/14 A2995 RMK A01 T02150139  RH  065%=      5-min Rain = 0
KGGS 250520Z 14009G14KT 21/14 A2995 RMK A01 T02130137  RH  065%=      5-min Rain = 0
KGGS 250525Z 15009KT 21/14 A2995 RMK A01 T02140136  RH  063%=      5-min Rain = 0
KGGS 250530Z 15009KT 21/13 A2994 RMK A01 T02130134  RH  063%=      5-min Rain = 0
KGGS 250535Z 15009KT 21/13 A2994 RMK A01 T02130134  RH  063%=      5-min Rain = 0
KGGS 250540Z 15009KT 21/14 A2994 RMK A01 T02120135  RH  064%=      5-min Rain = 0
KGGS 250545Z 16010KT 21/14 A2994 RMK A01 T02120136  RH  065%=      5-min Rain = 0
KGGS 250550Z 17011KT 21/14 A2994 RMK A01 T02110136  RH  065%=      5-min Rain = 0
KGGS 250555Z 18009KT 21/14 A2993 RMK A01 T02080136  RH  066%=      5-min Rain = 0
KGGS 250600Z 18008KT 21/14 A2993 RMK A01 T02050137  RH  068%=      5-min Rain = 0
KGGS 250605Z 18008KT 20/14 A2993 RMK A01 T02020138  RH  069%=      5-min Rain = 0
KGGS 250610Z 18008KT 20/14 A2993 RMK A01 T02000138  RH  071%=      5-min Rain = 0
KGGS 250615Z 18008KT 20/14 A2993 RMK A01 T01980139  RH  072%=      5-min Rain = 0
KGGS 250620Z 18007KT 20/14 A2993 RMK A01 T01960140  RH  073%=      5-min Rain = 0.01
KGGS 250625Z 19008KT 20/14 A2993 RMK A01 T01950141  RH  074%=      5-min Rain = 0
KGGS 250630Z 19006KT 19/14 A2993 RMK A01 T01920141  RH  076%=      5-min Rain = 0
KGGS 250635Z 19007KT 19/14 A2993 RMK A01 T01900141  RH  076%=      5-min Rain = 0
KGGS 250640Z 18007KT 19/14 A2993 RMK A01 T01890141  RH  077%=      5-min Rain = 0
KGGS 250645Z 18006KT 19/14 A2993 RMK A01 T01890141  RH  077%=      5-min Rain = 0
KGGS 250650Z 19007KT 19/14 A2993 RMK A01 T01880141  RH  078%=      5-min Rain = 0
KGGS 250655Z 18006KT 19/14 A2993 RMK A01 T01870141  RH  078%=      5-min Rain = 0
KGGS 250700Z 19007KT 19/14 A2993 RMK A01 T01860141  RH  078%=      5-min Rain = 0
KGGS 250705Z 18007KT 19/14 A2993 RMK A01 T01860141  RH  078%=      5-min Rain = 0
KGGS 250710Z 19007KT 19/14 A2993 RMK A01 T01850141  RH  079%=      5-min Rain = 0
KGGS 250715Z 19007KT 18/14 A2993 RMK A01 T01820141  RH  080%=      5-min Rain = 0
KGGS 250720Z 19007KT 18/14 A2993 RMK A01 T01820141  RH  080%=      5-min Rain = 0
KGGS 250725Z 18007KT 18/14 A2993 RMK A01 T01830142  RH  080%=      5-min Rain = 0
KGGS 250730Z 18006KT 18/14 A2993 RMK A01 T01840142  RH  080%=      5-min Rain = 0
KGGS 250735Z 17006KT 18/14 A2993 RMK A01 T01840143  RH  081%=      5-min Rain = 0
KGGS 250740Z 18006KT 18/14 A2993 RMK A01 T01830144  RH  081%=      5-min Rain = 0
KGGS 250745Z 18006KT 18/14 A2993 RMK A01 T01820144  RH  082%=      5-min Rain = 0
KGGS 250750Z 19006KT 18/14 A2994 RMK A01 T01810144  RH  082%=      5-min Rain = 0
KGGS 250755Z 21005KT 18/14 A2994 RMK A01 T01790144  RH  083%=      5-min Rain = 0
KGGS 250800Z 21004KT 18/14 A2994 RMK A01 T01770144  RH  084%=      5-min Rain = 0
KGGS 250805Z 21004KT 18/14 A2994 RMK A01 T01750144  RH  085%=      5-min Rain = 0
KGGS 250810Z 21003KT 17/14 A2994 RMK A01 T01740144  RH  086%=      5-min Rain = 0
KGGS 250815Z 20002KT 17/14 A2994 RMK A01 T01730143  RH  087%=      5-min Rain = 0
KGGS 250820Z 15000KT 17/15 A2994 RMK A01 T01730145  RH  087%=      5-min Rain = 0
KGGS 250825Z 13002KT 17/15 A2994 RMK A01 T01720146  RH  088%=      5-min Rain = 0
KGGS 250830Z 16003KT 17/15 A2994 RMK A01 T01700145  RH  089%=      5-min Rain = 0
KGGS 250835Z 18005KT 17/15 A2994 RMK A01 T01690145  RH  090%=      5-min Rain = 0
KGGS 250840Z 18006KT 17/14 A2994 RMK A01 T01680144  RH  090%=      5-min Rain = 0
KGGS 250845Z 20006KT 17/14 A2994 RMK A01 T01670144  RH  090%=      5-min Rain = 0
KGGS 250850Z 20004KT 17/14 A2994 RMK A01 T01680144  RH  089%=      5-min Rain = 0
KGGS 250855Z 18003KT 17/14 A2995 RMK A01 T01680144  RH  089%=      5-min Rain = 0
KGGS 250900Z 18004KT 17/14 A2995 RMK A01 T01680144  RH  089%=      5-min Rain = 0
KGGS 250905Z 19005KT 17/14 A2995 RMK A01 T01670143  RH  089%=      5-min Rain = 0
KGGS 250910Z 20006KT 17/14 A2995 RMK A01 T01680143  RH  089%=      5-min Rain = 0
KGGS 250915Z 21005KT 17/14 A2995 RMK A01 T01700142  RH  088%=      5-min Rain = 0
KGGS 250920Z 22006KT 17/14 A2995 RMK A01 T01720142  RH  086%=      5-min Rain = 0
KGGS 250925Z 22007KT 17/14 A2995 RMK A01 T01740141  RH  085%=      5-min Rain = 0
KGGS 250930Z 22007KT 18/14 A2995 RMK A01 T01760140  RH  083%=      5-min Rain = 0
KGGS 250935Z 21007KT 18/14 A2995 RMK A01 T01760139  RH  082%=      5-min Rain = 0
KGGS 250940Z 22007KT 18/14 A2995 RMK A01 T01760138  RH  082%=      5-min Rain = 0
KGGS 250945Z 22007KT 18/14 A2995 RMK A01 T01750138  RH  082%=      5-min Rain = 0
KGGS 250950Z 22008KT 18/14 A2994 RMK A01 T01770138  RH  082%=      5-min Rain = 0
KGGS 250955Z 21007KT 18/14 A2995 RMK A01 T01780138  RH  081%=      5-min Rain = 0
KGGS 251000Z 21007KT 18/14 A2995 RMK A01 T01790138  RH  080%=      5-min Rain = 0
KGGS 251005Z 22008KT 18/14 A2995 RMK A01 T01790138  RH  080%=      5-min Rain = 0
KGGS 251010Z 22007KT 18/14 A2995 RMK A01 T01790138  RH  080%=      5-min Rain = 0
KGGS 251015Z 22006KT 18/14 A2995 RMK A01 T01770138  RH  081%=      5-min Rain = 0
KGGS 251020Z 22005KT 18/14 A2995 RMK A01 T01750137  RH  082%=      5-min Rain = 0
KGGS 251025Z 22006KT 17/14 A2995 RMK A01 T01740138  RH  082%=      5-min Rain = 0
KGGS 251030Z 22006KT 18/14 A2995 RMK A01 T01750138  RH  082%=      5-min Rain = 0
KGGS 251035Z 23006KT 18/14 A2995 RMK A01 T01750138  RH  082%=      5-min Rain = 0
KGGS 251040Z 22005KT 17/14 A2995 RMK A01 T01740138  RH  082%=      5-min Rain = 0
KGGS 251045Z 22005KT 17/14 A2995 RMK A01 T01730137  RH  083%=      5-min Rain = 0
KGGS 251050Z 22005KT 17/14 A2995 RMK A01 T01720137  RH  083%=      5-min Rain = 0
KGGS 251055Z 21004KT 17/14 A2996 RMK A01 T01710137  RH  084%=      5-min Rain = 0
KGGS 251100Z 21004KT 17/14 A2996 RMK A01 T01700137  RH  084%=      5-min Rain = 0
KGGS 251105Z 20003KT 17/14 A2996 RMK A01 T01690136  RH  084%=      5-min Rain = 0
KGGS 251110Z 21004KT 17/14 A2996 RMK A01 T01690136  RH  085%=      5-min Rain = 0
KGGS 251115Z 21004KT 17/14 A2996 RMK A01 T01690136  RH  084%=      5-min Rain = 0
KGGS 251120Z 21004KT 17/14 A2997 RMK A01 T01700137  RH  084%=      5-min Rain = 0
KGGS 251125Z 20004KT 17/14 A2997 RMK A01 T01700137  RH  084%=      5-min Rain = 0
KGGS 251130Z 20003KT 17/14 A2997 RMK A01 T01700138  RH  085%=      5-min Rain = 0
KGGS 251135Z 20003KT 17/14 A2998 RMK A01 T01690137  RH  085%=      5-min Rain = 0
KGGS 251140Z 18004KT 17/14 A2998 RMK A01 T01670137  RH  086%=      5-min Rain = 0
KGGS 251145Z 19004KT 17/14 A2998 RMK A01 T01660137  RH  086%=      5-min Rain = 0
KGGS 251150Z 20004KT 17/14 A2998 RMK A01 T01660137  RH  087%=      5-min Rain = 0
KGGS 251155Z 21004KT 17/14 A2998 RMK A01 T01660138  RH  087%=      5-min Rain = 0
KGGS 251200Z 22004KT 17/14 A2998 RMK A01 T01680140  RH  087%=      5-min Rain = 0
KGGS 251205Z 22005KT 17/14 A2998 RMK A01 T01690141  RH  087%=      5-min Rain = 0
KGGS 251210Z 23004KT 17/14 A2998 RMK A01 T01710142  RH  087%=      5-min Rain = 0
KGGS 251215Z 24003KT 17/14 A2998 RMK A01 T01740143  RH  086%=      5-min Rain = 0
KGGS 251220Z 24003KT 18/14 A2998 RMK A01 T01760144  RH  085%=      5-min Rain = 0
KGGS 251225Z 24002KT 18/15 A2998 RMK A01 T01790145  RH  084%=      5-min Rain = 0
KGGS 251230Z 25001KT 18/15 A2998 RMK A01 T01830147  RH  083%=      5-min Rain = 0
KGGS 251235Z 26002KT 19/15 A2998 RMK A01 T01860148  RH  082%=      5-min Rain = 0
KGGS 251240Z 25002KT 19/15 A2998 RMK A01 T01900150  RH  081%=      5-min Rain = 0
KGGS 251245Z 24004KT 19/15 A2999 RMK A01 T01930150  RH  079%=      5-min Rain = 0
KGGS 251250Z 24005KT 20/15 A2999 RMK A01 T01970148  RH  077%=      5-min Rain = 0
KGGS 251255Z 23006KT 20/15 A2999 RMK A01 T01990148  RH  076%=      5-min Rain = 0
KGGS 251300Z 24006KT 20/15 A2998 RMK A01 T02020149  RH  075%=      5-min Rain = 0
KGGS 251305Z 23007KT 21/15 A2998 RMK A01 T02050150  RH  074%=      5-min Rain = 0
KGGS 251310Z 23007KT 21/15 A2998 RMK A01 T02060150  RH  074%=      5-min Rain = 0
KGGS 251315Z 23007KT 21/15 A2999 RMK A01 T02080152  RH  073%=      5-min Rain = 0
KGGS 251320Z 22007G12KT 21/15 A2999 RMK A01 T02100153  RH  073%=      5-min Rain = 0
KGGS 251325Z 22008KT 21/15 A2999 RMK A01 T02130154  RH  073%=      5-min Rain = 0
KGGS 251330Z 22009KT 22/15 A2999 RMK A01 T02150154  RH  071%=      5-min Rain = 0
KGGS 251335Z 21008KT 22/16 A2999 RMK A01 T02180157  RH  071%=      5-min Rain = 0
KGGS 251340Z 21010G16KT 22/16 A2999 RMK A01 T02210158  RH  070%=      5-min Rain = 0
KGGS 251345Z 21011G18KT 22/16 A2999 RMK A01 T02240159  RH  070%=      5-min Rain = 0
KGGS 251350Z 21012G17KT 23/16 A2999 RMK A01 T02280161  RH  069%=      5-min Rain = 0
KGGS 251355Z 22011G17KT 23/16 A2999 RMK A01 T02310162  RH  069%=      5-min Rain = 0
KGGS 251400Z 22011G18KT 23/16 A30 RMK A01 T02340164  RH  068%=      5-min Rain = 0
KGGS 251405Z 22013G21KT 24/17 A30 RMK A01 T02360165  RH  067%=      5-min Rain = 0
KGGS 251410Z 22014G20KT 24/17 A30 RMK A01 T02380165  RH  067%=      5-min Rain = 0
KGGS 251415Z 22014G20KT 24/17 A30 RMK A01 T02390165  RH  066%=      5-min Rain = 0
KGGS 251420Z 22014G20KT 24/16 A30 RMK A01 T02400164  RH  066%=      5-min Rain = 0
KGGS 251425Z 23013G18KT 24/17 A30 RMK A01 T02440166  RH  065%=      5-min Rain = 0
KGGS 251430Z 23013G19KT 25/17 A30 RMK A01 T02460166  RH  064%=      5-min Rain = 0
KGGS 251435Z 22013G19KT 25/17 A2999 RMK A01 T02480165  RH  063%=      5-min Rain = 0
KGGS 251440Z 22012G17KT 25/17 A30 RMK A01 T02490167  RH  063%=      5-min Rain = 0
KGGS 251445Z 22011KT 25/17 A30 RMK A01 T02520168  RH  063%=      5-min Rain = 0
KGGS 251450Z 23013G18KT 25/17 A2999 RMK A01 T02520166  RH  062%=      5-min Rain = 0
KGGS 251455Z 23014KT 25/17 A2999 RMK A01 T02530165  RH  061%=      5-min Rain = 0
KGGS 251500Z 23011G16KT 26/17 A2999 RMK A01 T02560168  RH  061%=      5-min Rain = 0
KGGS 251505Z 23011G16KT 26/17 A2999 RMK A01 T02600169  RH  060%=      5-min Rain = 0
KGGS 251510Z 23011KT 26/17 A2999 RMK A01 T02610168  RH  060%=      5-min Rain = 0
KGGS 251515Z 23012G18KT 26/17 A2999 RMK A01 T02620167  RH  059%=      5-min Rain = 0
KGGS 251520Z 23012KT 26/17 A2999 RMK A01 T02630167  RH  058%=      5-min Rain = 0
KGGS 251525Z 22012KT 27/17 A2999 RMK A01 T02680168  RH  057%=      5-min Rain = 0
KGGS 251530Z 22011KT 27/17 A2999 RMK A01 T02690169  RH  057%=      5-min Rain = 0
KGGS 251535Z 24009KT 27/17 A2999 RMK A01 T02720171  RH  057%=      5-min Rain = 0
KGGS 251540Z 23010KT 27/17 A2999 RMK A01 T02720171  RH  056%=      5-min Rain = 0
KGGS 251545Z 24009KT 27/17 A30 RMK A01 T02730170  RH  056%=      5-min Rain = 0
KGGS 251550Z 24009KT 28/17 A30 RMK A01 T02770173  RH  056%=      5-min Rain = 0
KGGS 251555Z 23010KT 28/17 A30 RMK A01 T02760167  RH  054%=      5-min Rain = 0
KGGS 251600Z 24009KT 28/17 A30 RMK A01 T02800169  RH  054%=      5-min Rain = 0
KGGS 251605Z 24008KT 28/17 A30 RMK A01 T02820171  RH  054%=      5-min Rain = 0
KGGS 251610Z 23008KT 29/17 A30 RMK A01 T02860172  RH  053%=      5-min Rain = 0
KGGS 251615Z 23006KT 29/17 A30 RMK A01 T02850168  RH  052%=      5-min Rain = 0
KGGS 251620Z 23006KT 29/17 A30 RMK A01 T02870169  RH  051%=      5-min Rain = 0
KGGS 251625Z 21006KT 29/17 A30 RMK A01 T02880168  RH  051%=      5-min Rain = 0
KGGS 251630Z 22004KT 29/17 A30 RMK A01 T02910170  RH  051%=      5-min Rain = 0
KGGS 251635Z 21004KT 29/17 A30 RMK A01 T02910169  RH  050%=      5-min Rain = 0
KGGS 251640Z 17005KT 30/17 A30 RMK A01 T02950173  RH  050%=      5-min Rain = 0
KGGS 251645Z 16004KT 30/17 A30 RMK A01 T03010171  RH  048%=      5-min Rain = 0
KGGS 251650Z 18003KT 30/16 A30 RMK A01 T02950164  RH  047%=      5-min Rain = 0
KGGS 251655Z 17004KT 30/16 A30 RMK A01 T02950164  RH  047%=      5-min Rain = 0
KGGS 251700Z 17005KT 30/17 A30 RMK A01 T03010169  RH  047%=      5-min Rain = 0
KGGS 251705Z 19006KT 30/17 A30 RMK A01 T02990165  RH  047%=      5-min Rain = 0
KGGS 251710Z 16004KT 30/16 A30 RMK A01 T03000163  RH  046%=      5-min Rain = 0
KGGS 251715Z 15007KT 30/17 A30 RMK A01 T03030171  RH  047%=      5-min Rain = 0
KGGS 251720Z 17007G13KT 31/17 A30 RMK A01 T03050170  RH  047%=      5-min Rain = 0
KGGS 251725Z 15009KT 31/17 A30 RMK A01 T03070173  RH  047%=      5-min Rain = 0
KGGS 251730Z 15008KT 31/17 A30 RMK A01 T03050172  RH  047%=      5-min Rain = 0
KGGS 251735Z 15006G11KT 31/17 A30 RMK A01 T03060171  RH  047%=      5-min Rain = 0
KGGS 251740Z 16007KT 31/17 A30 RMK A01 T03080172  RH  047%=      5-min Rain = 0
KGGS 251745Z 16009KT 31/17 A30 RMK A01 T03110173  RH  046%=      5-min Rain = 0
KGGS 251750Z 15006G11KT 31/17 A30 RMK A01 T03120171  RH  045%=      5-min Rain = 0
KGGS 251755Z 16008G13KT 31/17 A30 RMK A01 T03120173  RH  046%=      5-min Rain = 0
KGGS 251800Z 16010G17KT 31/17 A30 RMK A01 T03100173  RH  046%=      5-min Rain = 0
KGGS 251805Z 16008KT 31/18 A30 RMK A01 T03140176  RH  046%=      5-min Rain = 0
KGGS 251810Z 16008G13KT 31/17 A30 RMK A01 T03140174  RH  046%=      5-min Rain = 0
KGGS 251815Z 15009KT 32/17 A30 RMK A01 T03150174  RH  045%=      5-min Rain = 0
KGGS 251820Z 14008G14KT 31/17 A30 RMK A01 T03120172  RH  046%=      5-min Rain = 0
KGGS 251825Z 14009KT 31/17 A30 RMK A01 T03140173  RH  045%=      5-min Rain = 0
KGGS 251830Z 15008G14KT 31/17 A30 RMK A01 T03140171  RH  045%=      5-min Rain = 0
KGGS 251835Z 14009G15KT 32/17 A30 RMK A01 T03150172  RH  045%=      5-min Rain = 0
KGGS 251840Z 13010KT 31/17 A30 RMK A01 T03130168  RH  044%=      5-min Rain = 0
KGGS 251845Z 14009KT 32/17 A2999 RMK A01 T03150169  RH  044%=      5-min Rain = 0
KGGS 251850Z 14008G14KT 32/17 A2999 RMK A01 T03150166  RH  043%=      5-min Rain = 0
KGGS 251855Z 15010G15KT 32/17 A2999 RMK A01 T03180165  RH  042%=      5-min Rain = 0
KGGS 251900Z 14011KT 32/17 A2999 RMK A01 T03180166  RH  042%=      5-min Rain = 0
KGGS 251905Z 14008G13KT 32/16 A2999 RMK A01 T03160161  RH  041%=      5-min Rain = 0
KGGS 251910Z 14008G13KT 32/17 A2999 RMK A01 T03210167  RH  042%=      5-min Rain = 0
KGGS 251915Z 17009KT 32/17 A2999 RMK A01 T03230165  RH  041%=      5-min Rain = 0
KGGS 251920Z 15010G15KT 33/17 A2999 RMK A01 T03260165  RH  040%=      5-min Rain = 0
KGGS 251925Z 14008G13KT 32/16 A2998 RMK A01 T03230160  RH  039%=      5-min Rain = 0
KGGS 251930Z 13007G13KT 33/16 A2998 RMK A01 T03260160  RH  039%=      5-min Rain = 0
KGGS 251935Z 13009G14KT 33/16 A2998 RMK A01 T03260160  RH  039%=      5-min Rain = 0
KGGS 251940Z 15011G17KT 33/16 A2998 RMK A01 T03270159  RH  038%=      5-min Rain = 0
KGGS 251945Z 14008G13KT 33/16 A2998 RMK A01 T03280160  RH  038%=      5-min Rain = 0
KGGS 251950Z 14010G16KT 33/16 A2997 RMK A01 T03290161  RH  038%=      5-min Rain = 0
KGGS 251955Z 13011G17KT 33/16 A2997 RMK A01 T03260162  RH  039%=      5-min Rain = 0
KGGS 252000Z 13010G16KT 32/17 A2997 RMK A01 T03230169  RH  042%=      5-min Rain = 0
KGGS 252005Z 13010G15KT 33/17 A2997 RMK A01 T03270171  RH  042%=      5-min Rain = 0
KGGS 252010Z 14011G16KT 33/17 A2997 RMK A01 T03270171  RH  042%=      5-min Rain = 0
KGGS 252015Z 14011G18KT 33/17 A2997 RMK A01 T03260170  RH  041%=      5-min Rain = 0
KGGS 252020Z 12011G16KT 32/17 A2997 RMK A01 T03210169  RH  042%=      5-min Rain = 0
KGGS 252025Z 12011G18KT 32/17 A2996 RMK A01 T03200170  RH  043%=      5-min Rain = 0
KGGS 252030Z 12011G16KT 32/17 A2996 RMK A01 T03210170  RH  042%=      5-min Rain = 0
KGGS 252035Z 14011G17KT 33/17 A2996 RMK A01 T03250169  RH  041%=      5-min Rain = 0
KGGS 252040Z 13009KT 32/17 A2996 RMK A01 T03240169  RH  042%=      5-min Rain = 0
KGGS 252045Z 14009KT 33/17 A2996 RMK A01 T03260167  RH  041%=      5-min Rain = 0
KGGS 252050Z 12009KT 32/17 A2996 RMK A01 T03230167  RH  041%=      5-min Rain = 0
KGGS 252055Z 15009G15KT 33/17 A2996 RMK A01 T03280169  RH  041%=      5-min Rain = 0
KGGS 252100Z 13009KT 33/16 A2996 RMK A01 T03250164  RH  040%=      5-min Rain = 0
KGGS 252105Z 13011G16KT 32/16 A2996 RMK A01 T03240164  RH  040%=      5-min Rain = 0
KGGS 252110Z 14011G17KT 33/17 A2996 RMK A01 T03250165  RH  040%=      5-min Rain = 0
KGGS 252115Z 14012G17KT 33/17 A2996 RMK A01 T03260166  RH  040%=      5-min Rain = 0
KGGS 252120Z 13012G18KT 32/16 A2995 RMK A01 T03230163  RH  040%=      5-min Rain = 0
KGGS 252125Z 13011G16KT 33/17 A2995 RMK A01 T03250165  RH  040%=      5-min Rain = 0
KGGS 252130Z 13011G17KT 32/17 A2995 RMK A01 T03240165  RH  040%=      5-min Rain = 0
KGGS 252135Z 13010G15KT 32/17 A2995 RMK A01 T03240165  RH  040%=      5-min Rain = 0
KGGS 252140Z 13012G17KT 33/17 A2995 RMK A01 T03270168  RH  041%=      5-min Rain = 0
KGGS 252145Z 13011G17KT 33/17 A2995 RMK A01 T03260166  RH  040%=      5-min Rain = 0
KGGS 252150Z 13009G15KT 33/17 A2995 RMK A01 T03260167  RH  041%=      5-min Rain = 0
KGGS 252155Z 12010G15KT 33/16 A2994 RMK A01 T03260164  RH  040%=      5-min Rain = 0
KGGS 252200Z 12012G18KT 32/17 A2994 RMK A01 T03240165  RH  041%=      5-min Rain = 0
KGGS 252205Z 13011G16KT 33/16 A2994 RMK A01 T03270162  RH  039%=      5-min Rain = 0
KGGS 252210Z 13012G17KT 33/16 A2994 RMK A01 T03260160  RH  039%=      5-min Rain = 0
KGGS 252215Z 14011G18KT 33/16 A2994 RMK A01 T03280164  RH  039%=      5-min Rain = 0
KGGS 252220Z 15010G17KT 33/16 A2994 RMK A01 T03290161  RH  038%=      5-min Rain = 0
KGGS 252225Z 14010KT 33/16 A2994 RMK A01 T03310164  RH  039%=      5-min Rain = 0
KGGS 252230Z 13010G15KT 33/16 A2994 RMK A01 T03280160  RH  038%=      5-min Rain = 0
KGGS 252235Z 14010G16KT 33/16 A2994 RMK A01 T03290162  RH  039%=      5-min Rain = 0
KGGS 252240Z 14010G15KT 33/16 A2993 RMK A01 T03280161  RH  038%=      5-min Rain = 0
KGGS 252245Z 14010G16KT 33/16 A2993 RMK A01 T03290161  RH  038%=      5-min Rain = 0
KGGS 252250Z 15011KT 33/16 A2993 RMK A01 T03290162  RH  039%=      5-min Rain = 0
KGGS 252255Z 15010G16KT 33/16 A2993 RMK A01 T03300161  RH  038%=      5-min Rain = 0
KGGS 252300Z 14010G16KT 33/16 A2993 RMK A01 T03300161  RH  038%=      5-min Rain = 0
KGGS 252305Z 14010KT 33/16 A2993 RMK A01 T03280159  RH  038%=      5-min Rain = 0
KGGS 252310Z 13013KT 33/16 A2993 RMK A01 T03260156  RH  038%=      5-min Rain = 0
KGGS 252315Z 14012G18KT 33/16 A2993 RMK A01 T03250158  RH  038%=      5-min Rain = 0
KGGS 252320Z 15010G15KT 33/16 A2993 RMK A01 T03260160  RH  039%=      5-min Rain = 0
KGGS 252325Z 14011KT 33/16 A2992 RMK A01 T03250158  RH  038%=      5-min Rain = 0
KGGS 252330Z 14013G21KT 32/16 A2992 RMK A01 T03230160  RH  039%=      5-min Rain = 0
KGGS 252335Z 13013G19KT 32/16 A2992 RMK A01 T03200157  RH  039%=      5-min Rain = 0
KGGS 252340Z 13012G18KT 32/16 A2992 RMK A01 T03190159  RH  040%=      5-min Rain = 0
KGGS 252345Z 13012G19KT 32/16 A2992 RMK A01 T03180158  RH  040%=      5-min Rain = 0
KGGS 252350Z 14013G18KT 32/15 A2992 RMK A01 T03180154  RH  039%=      5-min Rain = 0
KGGS 252355Z 13011G19KT 32/16 A2992 RMK A01 T03160156  RH  040%=      5-min Rain = 0
KGGS 260000Z 13011G18KT 32/16 A2992 RMK A01 T03150158  RH  041%=      5-min Rain = 0
KGGS 260005Z 13012G17KT 32/16 A2992 RMK A01 T03150157  RH  040%=      5-min Rain = 0
KGGS 260010Z 13011G17KT 31/16 A2992 RMK A01 T03140155  RH  040%=      5-min Rain = 0
KGGS 260015Z 13013G18KT 31/16 A2992 RMK A01 T03130158  RH  041%=      5-min Rain = 0
KGGS 260020Z 13012G21KT 31/16 A2992 RMK A01 T03110159  RH  042%=      5-min Rain = 0
KGGS 260025Z 13013G18KT 31/16 A2992 RMK A01 T03100158  RH  042%=      5-min Rain = 0
KGGS 260030Z 13013G19KT 31/16 A2992 RMK A01 T03090158  RH  042%=      5-min Rain = 0
KGGS 260035Z 13012G17KT 31/16 A2992 RMK A01 T03080160  RH  043%=      5-min Rain = 0
KGGS 260040Z 13013KT 31/16 A2992 RMK A01 T03070161  RH  043%=      5-min Rain = 0
KGGS 260045Z 13013G20KT 31/16 A2992 RMK A01 T03050161  RH  044%=      5-min Rain = 0
KGGS 260050Z 13015G20KT 30/16 A2992 RMK A01 T03040159  RH  044%=      5-min Rain = 0
KGGS 260055Z 13013G18KT 30/16 A2993 RMK A01 T03030160  RH  044%=      5-min Rain = 0
KGGS 260100Z 14012G17KT 30/16 A2993 RMK A01 T03010160  RH  045%=      5-min Rain = 0
KGGS 260105Z 13014G19KT 30/16 A2993 RMK A01 T03010158  RH  044%=      5-min Rain = 0
KGGS 260110Z 13012G18KT 30/16 A2994 RMK A01 T02990158  RH  045%=      5-min Rain = 0
KGGS 260115Z 14013G19KT 30/16 A2994 RMK A01 T02980157  RH  044%=      5-min Rain = 0
KGGS 260120Z 13011G17KT 30/16 A2994 RMK A01 T02970158  RH  045%=      5-min Rain = 0
KGGS 260125Z 13012G17KT 30/16 A2994 RMK A01 T02960157  RH  045%=      5-min Rain = 0
KGGS 260130Z 13011G17KT 29/16 A2994 RMK A01 T02930160  RH  047%=      5-min Rain = 0
KGGS 260135Z 14011G16KT 29/16 A2995 RMK A01 T02920161  RH  047%=      5-min Rain = 0
KGGS 260140Z 14013G18KT 29/16 A2995 RMK A01 T02910161  RH  048%=      5-min Rain = 0
KGGS 260145Z 14011G16KT 29/16 A2995 RMK A01 T02890161  RH  048%=      5-min Rain = 0
KGGS 260150Z 13011KT 29/16 A2995 RMK A01 T02870163  RH  049%=      5-min Rain = 0
KGGS 260155Z 13010G16KT 29/17 A2995 RMK A01 T02860165  RH  051%=      5-min Rain = 0
KGGS 260200Z 13011KT 29/17 A2996 RMK A01 T02850166  RH  051%=      5-min Rain = 0
KGGS 260205Z 13010KT 28/17 A2996 RMK A01 T02830167  RH  052%=      5-min Rain = 0
KGGS 260210Z 13011G17KT 28/17 A2996 RMK A01 T02820168  RH  053%=      5-min Rain = 0
KGGS 260215Z 12010G15KT 28/17 A2996 RMK A01 T02810169  RH  053%=      5-min Rain = 0
KGGS 260220Z 13010G16KT 28/17 A2997 RMK A01 T02800170  RH  054%=      5-min Rain = 0
KGGS 260225Z 13010G16KT 28/17 A2997 RMK A01 T02780171  RH  055%=      5-min Rain = 0
KGGS 260230Z 13011G17KT 28/17 A2997 RMK A01 T02770171  RH  055%=      5-min Rain = 0
KGGS 260235Z 12011KT 28/17 A2997 RMK A01 T02770171  RH  055%=      5-min Rain = 0
KGGS 260240Z 12010G15KT 28/17 A2998 RMK A01 T02750171  RH  056%=      5-min Rain = 0
KGGS 260245Z 13010G15KT 27/17 A2998 RMK A01 T02740170  RH  056%=      5-min Rain = 0
KGGS 260250Z 13010KT 27/17 A2999 RMK A01 T02730170  RH  056%=      5-min Rain = 0
KGGS 260255Z 13010G16KT 27/17 A2999 RMK A01 T02720170  RH  056%=      5-min Rain = 0
KGGS 260300Z 13010G15KT 27/17 A2999 RMK A01 T02710170  RH  057%=      5-min Rain = 0
KGGS 260305Z 13010KT 27/17 A2999 RMK A01 T02700170  RH  057%=      5-min Rain = 0
KGGS 260310Z 14009KT 27/17 A30 RMK A01 T02690171  RH  058%=      5-min Rain = 0
KGGS 260315Z 14011G16KT 27/17 A30 RMK A01 T02680170  RH  058%=      5-min Rain = 0
KGGS 260320Z 14010G15KT 27/17 A3001 RMK A01 T02680170  RH  058%=      5-min Rain = 0
KGGS 260325Z 14010G16KT 27/17 A3001 RMK A01 T02680170  RH  058%=      5-min Rain = 0
KGGS 260330Z 14008G13KT 27/17 A3002 RMK A01 T02660170  RH  058%=      5-min Rain = 0
KGGS 260335Z 14010KT 27/17 A3002 RMK A01 T02660170  RH  058%=      5-min Rain = 0
KGGS 260340Z 13009G14KT 27/17 A3003 RMK A01 T02650170  RH  058%=      5-min Rain = 0
KGGS 260345Z 13009KT 26/17 A3003 RMK A01 T02630170  RH  059%=      5-min Rain = 0
KGGS 260350Z 13009KT 26/17 A3003 RMK A01 T02630169  RH  059%=      5-min Rain = 0
KGGS 260355Z 13008KT 26/17 A3004 RMK A01 T02620169  RH  060%=      5-min Rain = 0
KGGS 260400Z 13008KT 26/17 A3004 RMK A01 T02610169  RH  060%=      5-min Rain = 0
KGGS 260405Z 12008G13KT 26/17 A3004 RMK A01 T02600169  RH  060%=      5-min Rain = 0
KGGS 260410Z 12009KT 26/17 A3004 RMK A01 T02590169  RH  060%=      5-min Rain = 0
KGGS 260415Z 13007KT 26/17 A3005 RMK A01 T02570169  RH  061%=      5-min Rain = 0
KGGS 260420Z 13007KT 26/17 A3005 RMK A01 T02560169  RH  062%=      5-min Rain = 0
KGGS 260425Z 13006KT 25/17 A3005 RMK A01 T02540169  RH  062%=      5-min Rain = 0
KGGS 260430Z 13006KT 25/17 A3005 RMK A01 T02520169  RH  063%=      5-min Rain = 0
KGGS 260435Z 14006KT 25/17 A3005 RMK A01 T02510170  RH  064%=      5-min Rain = 0
KGGS 260440Z 14006KT 25/17 A3005 RMK A01 T02490170  RH  065%=      5-min Rain = 0
KGGS 260445Z 13006KT 25/17 A3005 RMK A01 T02480170  RH  065%=      5-min Rain = 0
KGGS 260450Z 13006KT 25/17 A3005 RMK A01 T02470170  RH  065%=      5-min Rain = 0
KGGS 260455Z 13007KT 25/17 A3005 RMK A01 T02470169  RH  065%=      5-min Rain = 0

Page generated in 0.0093 seconds.